createdAt,value
2023-05-17T00:02:21.038Z,83.82
2023-05-17T00:05:08.136Z,84.71
2023-05-17T00:07:55.224Z,84.00
2023-05-17T00:10:42.240Z,83.68
2023-05-17T00:13:29.405Z,83.57
2023-05-17T00:16:16.453Z,84.49
2023-05-17T00:19:03.637Z,84.58
2023-05-17T00:21:50.848Z,84.42
2023-05-17T00:24:38.091Z,83.67
2023-05-17T00:27:25.618Z,83.73
2023-05-17T00:30:12.660Z,84.77
2023-05-17T00:32:59.992Z,83.67
2023-05-17T00:35:47.390Z,84.25
2023-05-17T00:38:34.477Z,84.54
2023-05-17T00:41:21.844Z,83.95
2023-05-17T00:44:08.782Z,83.88
2023-05-17T00:46:55.857Z,84.01
2023-05-17T00:49:43.454Z,84.25
2023-05-17T00:52:30.693Z,84.78
2023-05-17T00:55:18.000Z,85.15
2023-05-17T00:58:05.268Z,85.32
2023-05-17T01:00:52.421Z,85.44
2023-05-17T01:03:39.551Z,85.69
2023-05-17T01:06:26.783Z,84.50
2023-05-17T01:09:13.969Z,84.89
2023-05-17T01:12:03.900Z,85.69
2023-05-17T01:14:54.176Z,84.71
2023-05-17T01:17:52.185Z,85.23
2023-05-17T01:20:39.394Z,84.83
2023-05-17T01:23:51.791Z,84.78
2023-05-17T01:26:49.176Z,85.70
2023-05-17T01:29:37.158Z,84.90
2023-05-17T01:32:26.459Z,85.02
2023-05-17T01:35:13.444Z,84.68
2023-05-17T01:38:00.592Z,85.85
2023-05-17T01:40:48.446Z,85.17
2023-05-17T01:43:51.384Z,85.01
2023-05-17T01:46:44.299Z,85.98
2023-05-17T01:49:35.638Z,85.24
2023-05-17T01:52:28.988Z,85.39
2023-05-17T01:55:26.917Z,85.99
2023-05-17T01:58:16.289Z,85.04
2023-05-17T02:01:06.744Z,85.71
2023-05-17T02:03:53.741Z,85.40
2023-05-17T02:06:40.946Z,85.78
2023-05-17T02:09:28.248Z,85.44
2023-05-17T02:12:15.216Z,86.04
2023-05-17T02:15:02.195Z,85.64
2023-05-17T02:17:49.432Z,86.50
2023-05-17T02:20:36.645Z,86.01
2023-05-17T02:23:23.579Z,86.39
2023-05-17T02:26:13.158Z,85.51
2023-05-17T02:29:00.200Z,85.78
2023-05-17T02:31:47.367Z,85.70
2023-05-17T02:34:34.365Z,85.92
2023-05-17T02:37:21.537Z,86.69
2023-05-17T02:40:08.706Z,86.26
2023-05-17T02:42:56.651Z,86.82
2023-05-17T02:45:43.783Z,86.41
2023-05-17T02:48:33.136Z,86.52
2023-05-17T02:51:20.257Z,87.08
2023-05-17T02:54:07.511Z,87.60
2023-05-17T02:56:54.822Z,87.35
2023-05-17T02:59:42.118Z,87.33
2023-05-17T03:02:29.283Z,86.90
2023-05-17T03:05:16.394Z,86.66
2023-05-17T03:08:08.461Z,87.23
2023-05-17T03:10:55.446Z,86.31
2023-05-17T03:13:42.576Z,86.99
2023-05-17T03:16:31.953Z,86.15
2023-05-17T03:19:20.464Z,86.13
2023-05-17T03:22:07.585Z,86.27
2023-05-17T03:24:54.777Z,87.29
2023-05-17T03:27:42.575Z,87.05
2023-05-17T03:30:30.022Z,87.50
2023-05-17T03:33:19.313Z,87.68
2023-05-17T03:36:06.534Z,87.06
2023-05-17T03:38:53.526Z,87.23
2023-05-17T03:41:40.748Z,87.06
2023-05-17T03:44:27.913Z,86.90
2023-05-17T03:47:15.058Z,86.37
2023-05-17T03:50:02.877Z,87.16
2023-05-17T03:52:51.042Z,86.93
2023-05-17T03:55:38.869Z,86.88
2023-05-17T03:58:27.338Z,86.27
2023-05-17T04:01:14.443Z,86.94
2023-05-17T04:04:01.680Z,86.87
2023-05-17T04:06:48.825Z,87.38
2023-05-17T04:09:36.418Z,87.18
2023-05-17T04:12:23.687Z,87.15
2023-05-17T04:15:10.777Z,86.62
2023-05-17T04:18:00.021Z,86.57
2023-05-17T04:20:47.350Z,87.23
2023-05-17T04:23:34.516Z,86.88
2023-05-17T04:26:22.951Z,87.79
2023-05-17T04:29:10.411Z,87.12
2023-05-17T04:31:57.417Z,87.51
2023-05-17T04:34:44.707Z,87.52
2023-05-17T04:37:31.634Z,87.55
2023-05-17T04:40:24.241Z,86.84
2023-05-17T04:43:11.656Z,87.83
2023-05-17T04:45:59.031Z,87.18
2023-05-17T04:48:46.876Z,87.16
2023-05-17T04:51:34.473Z,87.79
2023-05-17T04:54:22.267Z,87.83
2023-05-17T04:57:10.786Z,87.88
2023-05-17T05:00:10.044Z,87.40
2023-05-17T05:02:59.642Z,87.59
2023-05-17T05:05:46.890Z,87.77
2023-05-17T05:08:35.802Z,87.81
2023-05-17T05:11:24.505Z,87.52
2023-05-17T05:14:11.790Z,87.80
2023-05-17T05:16:58.919Z,87.92
2023-05-17T05:19:46.352Z,87.67
2023-05-17T05:22:33.509Z,87.62
2023-05-17T05:25:20.811Z,87.54
2023-05-17T05:28:07.758Z,87.57
2023-05-17T05:30:58.306Z,87.17
2023-05-17T05:33:45.994Z,87.92
2023-05-17T05:36:33.384Z,88.22
2023-05-17T05:39:22.702Z,87.69
2023-05-17T05:42:10.582Z,87.39
2023-05-17T05:44:57.846Z,88.32
2023-05-17T05:47:46.461Z,87.60
2023-05-17T05:50:33.473Z,87.92
2023-05-17T05:53:25.394Z,87.71
2023-05-17T05:56:14.957Z,87.84
2023-05-17T05:59:02.199Z,88.27
2023-05-17T06:01:52.112Z,87.71
2023-05-17T06:04:45.300Z,88.60
2023-05-17T06:07:33.800Z,87.82
2023-05-17T06:10:20.982Z,87.55
2023-05-17T06:13:07.891Z,87.99
2023-05-17T06:15:56.251Z,88.06
2023-05-17T06:18:43.318Z,87.63
2023-05-17T06:21:30.620Z,88.44
2023-05-17T06:24:17.766Z,88.90
2023-05-17T06:27:04.775Z,87.78
2023-05-17T06:29:51.893Z,87.49
2023-05-17T06:32:39.750Z,88.78
2023-05-17T06:35:27.728Z,87.79
2023-05-17T06:38:15.157Z,88.31
2023-05-17T06:41:02.111Z,88.57
2023-05-17T06:43:49.384Z,88.93
2023-05-17T06:46:36.411Z,88.02
2023-05-17T06:49:23.468Z,87.91
2023-05-17T06:52:10.399Z,87.52
2023-05-17T06:54:57.598Z,87.66
2023-05-17T06:57:44.515Z,88.46
2023-05-17T07:00:32.611Z,88.51
2023-05-17T07:03:20.232Z,88.50
2023-05-17T07:06:07.363Z,88.29
2023-05-17T07:08:54.508Z,88.09
2023-05-17T07:11:41.444Z,88.14
2023-05-17T07:14:28.557Z,88.23
2023-05-17T07:17:15.620Z,87.79
2023-05-17T07:20:02.963Z,88.52
2023-05-17T07:22:49.979Z,88.15
2023-05-17T07:25:37.084Z,88.62
2023-05-17T07:28:25.110Z,88.01
2023-05-17T07:31:12.155Z,87.81
2023-05-17T07:33:59.323Z,87.75
2023-05-17T07:36:46.396Z,89.01
2023-05-17T07:39:33.338Z,88.76
2023-05-17T07:42:20.299Z,88.71
2023-05-17T07:45:07.235Z,88.73
2023-05-17T07:47:54.256Z,88.16
2023-05-17T07:50:41.340Z,88.41
2023-05-17T07:53:28.236Z,88.97
2023-05-17T07:56:15.168Z,88.31
2023-05-17T07:59:02.344Z,88.80
2023-05-17T08:01:49.361Z,88.39
2023-05-17T08:04:36.611Z,88.80
2023-05-17T08:07:23.719Z,88.56
2023-05-17T08:10:10.743Z,88.67
2023-05-17T08:12:57.855Z,88.90
2023-05-17T08:15:44.841Z,88.19
2023-05-17T08:18:31.969Z,88.34
2023-05-17T08:21:19.079Z,88.99
2023-05-17T08:24:06.592Z,88.31
2023-05-17T08:26:54.074Z,89.01
2023-05-17T08:29:41.093Z,88.48
2023-05-17T08:32:28.161Z,88.28
2023-05-17T08:35:15.357Z,88.90
2023-05-17T08:38:02.336Z,88.40
2023-05-17T08:40:49.715Z,89.16
2023-05-17T08:43:37.272Z,89.28
2023-05-17T08:46:24.300Z,88.58
2023-05-17T08:49:13.331Z,88.84
2023-05-17T08:52:00.921Z,88.86
2023-05-17T08:54:48.145Z,88.29
2023-05-17T08:57:36.961Z,88.55
2023-05-17T09:00:24.980Z,88.90
2023-05-17T09:03:12.074Z,88.43
2023-05-17T09:05:59.282Z,88.91
2023-05-17T09:08:46.517Z,88.52
2023-05-17T09:11:46.366Z,88.52
2023-05-17T09:14:39.348Z,88.51
2023-05-17T09:17:26.358Z,88.73
2023-05-17T09:20:13.511Z,89.31
2023-05-17T09:23:00.846Z,88.62
2023-05-17T09:25:49.961Z,89.13
2023-05-17T09:28:39.363Z,89.44
2023-05-17T09:31:27.554Z,88.73
2023-05-17T09:34:14.749Z,89.41
2023-05-17T09:37:04.833Z,89.34
2023-05-17T09:39:52.542Z,88.54
2023-05-17T09:42:39.531Z,89.22
2023-05-17T09:45:27.157Z,89.18
2023-05-17T09:48:14.553Z,89.08
2023-05-17T09:51:11.461Z,88.72
2023-05-17T09:54:01.131Z,88.31
2023-05-17T09:56:49.895Z,88.20
2023-05-17T09:59:36.989Z,89.12
2023-05-17T10:02:33.383Z,88.07
2023-05-17T10:05:24.653Z,88.59
2023-05-17T10:08:14.443Z,89.05
2023-05-17T10:11:02.200Z,88.38
2023-05-17T10:13:54.714Z,88.25
2023-05-17T10:16:42.608Z,89.29
2023-05-17T10:19:31.807Z,89.28
2023-05-17T10:22:23.458Z,88.43
2023-05-17T10:25:11.854Z,88.60
2023-05-17T10:27:59.222Z,88.64
2023-05-17T10:30:48.793Z,87.59
2023-05-17T10:33:36.133Z,88.21
2023-05-17T10:36:25.016Z,88.10
2023-05-17T10:39:13.078Z,87.89
2023-05-17T10:42:14.160Z,87.51
2023-05-17T10:45:01.987Z,88.15
2023-05-17T10:47:53.351Z,88.13
2023-05-17T10:50:54.570Z,88.21
2023-05-17T10:53:48.582Z,87.92
2023-05-17T10:56:35.561Z,87.56
2023-05-17T10:59:35.549Z,88.62
2023-05-17T11:02:23.897Z,88.02
2023-05-17T11:05:14.204Z,88.01
2023-05-17T11:08:01.447Z,87.85
2023-05-17T11:10:48.446Z,87.90
2023-05-17T11:13:46.195Z,88.40
2023-05-17T11:16:36.595Z,88.89
2023-05-17T11:19:31.760Z,88.45
2023-05-17T11:22:19.432Z,88.44
2023-05-17T11:25:11.438Z,88.72
2023-05-17T11:28:12.207Z,87.68
2023-05-17T11:31:02.583Z,88.60
2023-05-17T11:34:04.304Z,87.89
2023-05-17T11:36:52.197Z,88.18
2023-05-17T11:39:44.381Z,88.73
2023-05-17T11:42:44.585Z,87.46
2023-05-17T11:45:31.652Z,88.33
2023-05-17T11:48:18.990Z,88.17
2023-05-17T11:51:09.230Z,87.85
2023-05-17T11:53:56.367Z,87.98
2023-05-17T11:56:44.276Z,87.31
2023-05-17T11:59:31.281Z,87.23
2023-05-17T12:02:18.372Z,87.62
2023-05-17T12:05:05.443Z,87.64
2023-05-17T12:07:54.319Z,87.40
2023-05-17T12:10:41.390Z,86.97
2023-05-17T12:13:29.637Z,87.98
2023-05-17T12:16:19.784Z,87.97
2023-05-17T12:19:11.851Z,87.16
2023-05-17T12:21:59.043Z,87.10
2023-05-17T12:24:57.498Z,87.47
2023-05-17T12:27:47.430Z,86.88
2023-05-17T12:30:35.553Z,87.18
2023-05-17T12:33:22.615Z,86.53
2023-05-17T12:36:10.417Z,87.17
2023-05-17T12:39:00.636Z,86.91
2023-05-17T12:41:48.365Z,86.36
2023-05-17T12:44:35.483Z,86.12
2023-05-17T12:47:22.873Z,86.06
2023-05-17T12:50:15.966Z,85.92
2023-05-17T12:53:03.065Z,85.90
2023-05-17T12:55:56.971Z,86.08
2023-05-17T12:58:32.207Z,86.71
2023-05-17T13:01:21.103Z,86.86
2023-05-17T13:04:11.569Z,85.70
2023-05-17T13:07:16.722Z,85.58
2023-05-17T13:10:08.001Z,86.06
2023-05-17T13:12:55.010Z,85.53
2023-05-17T13:15:48.107Z,85.72
2023-05-17T13:18:38.548Z,86.42
2023-05-17T13:21:25.607Z,85.78
2023-05-17T13:24:12.677Z,85.49
2023-05-17T13:26:59.818Z,85.00
2023-05-17T13:29:46.839Z,84.51
2023-05-17T13:32:34.350Z,84.34
2023-05-17T13:35:21.457Z,84.65
2023-05-17T13:38:08.642Z,84.98
2023-05-17T13:40:55.665Z,83.81
2023-05-17T13:43:42.973Z,84.21
2023-05-17T13:46:29.987Z,83.67
2023-05-17T13:49:17.441Z,83.91
2023-05-17T13:52:04.566Z,83.93
2023-05-17T13:54:51.702Z,82.71
2023-05-17T13:57:38.737Z,82.41
2023-05-17T14:00:26.634Z,82.15
2023-05-17T14:03:13.719Z,82.57
2023-05-17T14:06:00.938Z,83.34
2023-05-17T14:08:47.880Z,82.36
2023-05-17T14:11:35.046Z,81.96
2023-05-17T14:14:22.090Z,82.68
2023-05-17T14:17:09.120Z,82.74
